Main page
METAR-TAF:

METAR-TAF

Airports :

Pruniers

Romorantin, France

latitude: 47-19N, longitude: 001-41E, elevation: 85 m

Current weather observation

The report was made 24 minutes ago, at 14:30 UTC
Wind 9 kt from the Northeast, varying between North and East
Temperature 21°C
Humidity 40%
Pressure 1027 hPa
Visibility 10 km or more
no clouds below 1500 m and no cumulonimbus

METAR: LFYR 221430Z AUTO 05009KT 350V090 CAVOK 21/07 Q1027 NOSIG

Time: 16:54 (14:54 UTC)


TAF: missing

Weather observations and forecasts of more than 4000 airports (METAR and TAF reports).

The available stations are represented by yellow and red dots on the map.

Hover mouse over dot to see the name of the station.

Then click to see weather observations and forecasts.

To change the map : click on the green buttons with a black cross to zoom in, on the green button with a dash to zoom out, or on the green arrows for adjacent maps.


METAR-TAF: